createdAt,value
2018-09-26T00:00:21.685Z,102564.28
2018-09-26T00:02:54.583Z,102563.13
2018-09-26T00:05:23.015Z,102564.17
2018-09-26T00:07:51.199Z,102561.63
2018-09-26T00:10:19.365Z,102556.78
2018-09-26T00:12:47.533Z,102563.91
2018-09-26T00:15:15.729Z,102556.70
2018-09-26T00:17:43.939Z,102555.41
2018-09-26T00:20:12.214Z,102556.03
2018-09-26T00:22:40.425Z,102554.58
2018-09-26T00:25:08.832Z,102555.10
2018-09-26T00:27:36.933Z,102553.39
2018-09-26T00:30:05.240Z,102544.70
2018-09-26T00:32:33.430Z,102545.48
2018-09-26T00:35:01.634Z,102545.86
2018-09-26T00:37:29.853Z,102533.19
2018-09-26T00:39:58.181Z,102541.34
2018-09-26T00:42:26.451Z,102545.45
2018-09-26T00:44:54.635Z,102541.64
2018-09-26T00:47:22.882Z,102537.39
2018-09-26T00:49:51.150Z,102539.66
2018-09-26T00:52:19.430Z,102536.56
2018-09-26T00:54:47.728Z,102531.84
2018-09-26T00:57:16.333Z,102533.41
2018-09-26T00:59:45.380Z,102535.60
2018-09-26T01:02:13.616Z,102540.55
2018-09-26T01:04:41.740Z,102533.98
2018-09-26T01:07:10.056Z,102532.92
2018-09-26T01:09:38.212Z,102531.22
2018-09-26T01:12:06.445Z,102536.23
2018-09-26T01:14:34.738Z,102526.09
2018-09-26T01:17:03.083Z,102511.53
2018-09-26T01:19:31.206Z,102516.23
2018-09-26T01:21:59.461Z,102506.44
2018-09-26T01:24:27.607Z,102505.03
2018-09-26T01:26:55.961Z,102504.34
2018-09-26T01:29:24.140Z,102495.73
2018-09-26T01:31:53.045Z,102494.53
2018-09-26T01:34:21.147Z,102498.58
2018-09-26T01:36:49.461Z,102502.94
2018-09-26T01:39:17.694Z,102496.92
2018-09-26T01:41:46.015Z,102494.82
2018-09-26T01:44:14.182Z,102491.56
2018-09-26T01:46:42.277Z,102491.22
2018-09-26T01:49:10.463Z,102487.48
2018-09-26T01:51:38.743Z,102478.99
2018-09-26T01:54:07.145Z,102476.90
2018-09-26T01:56:35.522Z,102472.58
2018-09-26T01:59:03.937Z,102470.05
2018-09-26T02:01:32.319Z,102463.64
2018-09-26T02:04:00.473Z,102463.42
2018-09-26T02:06:28.871Z,102452.62
2018-09-26T02:08:57.073Z,102454.81
2018-09-26T02:11:25.285Z,102453.62
2018-09-26T02:13:53.493Z,102454.27
2018-09-26T02:18:49.415Z,102451.78
2018-09-26T02:21:17.747Z,102445.52
2018-09-26T02:23:45.988Z,102442.47
2018-09-26T02:26:14.320Z,102432.83
2018-09-26T02:28:42.415Z,102431.11
2018-09-26T02:31:10.643Z,102424.98
2018-09-26T02:33:39.042Z,102429.29
2018-09-26T02:36:14.700Z,102433.37
2018-09-26T02:38:42.842Z,102434.29
2018-09-26T02:41:11.144Z,102432.58
2018-09-26T02:43:39.332Z,102435.92
2018-09-26T02:46:07.660Z,102432.22
2018-09-26T02:48:41.619Z,102435.62
2018-09-26T02:51:09.836Z,102439.16
2018-09-26T02:53:38.150Z,102445.23
2018-09-26T02:56:06.425Z,102437.48
2018-09-26T02:58:34.674Z,102435.20
2018-09-26T03:01:02.970Z,102432.09
2018-09-26T03:03:31.229Z,102431.13
2018-09-26T03:05:59.386Z,102427.17
2018-09-26T03:08:28.430Z,102422.31
2018-09-26T03:10:56.648Z,102427.61
2018-09-26T03:13:24.766Z,102413.98
2018-09-26T03:15:52.922Z,102418.92
2018-09-26T03:18:21.110Z,102418.58
2018-09-26T03:20:49.882Z,102415.76
2018-09-26T03:23:18.064Z,102406.01
2018-09-26T03:25:46.302Z,102417.24
2018-09-26T03:28:14.506Z,102411.31
2018-09-26T03:30:42.816Z,102410.97
2018-09-26T03:33:11.089Z,102415.24
2018-09-26T03:35:39.309Z,102415.53
2018-09-26T03:38:08.406Z,102404.53
2018-09-26T03:40:36.612Z,102410.23
2018-09-26T03:43:04.802Z,102417.09
2018-09-26T03:45:32.953Z,102416.58
2018-09-26T03:48:01.259Z,102417.08
2018-09-26T03:50:29.530Z,102409.11
2018-09-26T03:52:57.800Z,102416.57
2018-09-26T03:55:25.985Z,102415.81
2018-09-26T03:57:54.094Z,102413.81
2018-09-26T04:00:22.268Z,102418.86
2018-09-26T04:02:50.532Z,102408.63
2018-09-26T04:05:18.690Z,102412.30
2018-09-26T04:07:47.544Z,102401.65
2018-09-26T04:12:43.504Z,102400.45
2018-09-26T04:15:11.711Z,102395.58
2018-09-26T04:17:40.068Z,102392.98
2018-09-26T04:20:08.717Z,102387.90
2018-09-26T04:22:37.019Z,102394.37
2018-09-26T04:25:05.377Z,102397.67
2018-09-26T04:27:33.612Z,102406.50
2018-09-26T04:30:01.905Z,102409.75
2018-09-26T04:32:30.374Z,102405.20
2018-09-26T04:34:58.711Z,102410.08
2018-09-26T04:37:27.055Z,102416.45
2018-09-26T04:39:55.293Z,102415.23
2018-09-26T04:42:23.461Z,102422.08
2018-09-26T04:44:51.839Z,102419.61
2018-09-26T04:47:20.092Z,102412.88
2018-09-26T04:49:48.605Z,102412.77
2018-09-26T04:52:16.842Z,102423.91
2018-09-26T04:54:45.332Z,102425.83
2018-09-26T04:57:21.269Z,102429.84
2018-09-26T04:59:50.576Z,102421.61
2018-09-26T05:02:19.072Z,102413.70
2018-09-26T05:04:48.140Z,102411.85
2018-09-26T05:07:16.976Z,102404.05
2018-09-26T05:09:45.157Z,102393.67
2018-09-26T05:12:13.292Z,102390.80
2018-09-26T05:14:41.516Z,102387.90
2018-09-26T05:17:10.510Z,102378.31
2018-09-26T05:19:38.774Z,102376.61
2018-09-26T05:22:07.136Z,102383.45
2018-09-26T05:24:35.418Z,102381.63
2018-09-26T05:27:03.778Z,102374.02
2018-09-26T05:29:32.076Z,102373.16
2018-09-26T05:32:00.210Z,102377.41
2018-09-26T05:34:28.649Z,102379.84
2018-09-26T05:36:56.803Z,102376.60
2018-09-26T05:39:24.977Z,102374.48
2018-09-26T05:41:53.218Z,102373.59
2018-09-26T05:44:22.141Z,102367.82
2018-09-26T05:46:50.448Z,102370.20
2018-09-26T05:49:18.714Z,102369.13
2018-09-26T05:51:47.601Z,102369.13
2018-09-26T05:54:15.921Z,102372.73
2018-09-26T05:56:44.251Z,102366.55
2018-09-26T05:59:12.385Z,102354.23
2018-09-26T06:01:40.515Z,102351.44
2018-09-26T06:04:08.860Z,102346.59
2018-09-26T06:06:37.812Z,102353.48
2018-09-26T06:09:10.761Z,102357.36
2018-09-26T06:11:38.961Z,102361.48
2018-09-26T06:14:07.973Z,102364.58
2018-09-26T06:16:36.257Z,102351.28
2018-09-26T06:19:04.605Z,102347.80
2018-09-26T06:21:32.744Z,102336.07
2018-09-26T06:24:00.919Z,102338.52
2018-09-26T06:26:29.165Z,102347.34
2018-09-26T06:28:57.495Z,102338.52
2018-09-26T06:31:25.852Z,102340.09
2018-09-26T06:33:54.001Z,102338.57
2018-09-26T06:36:22.287Z,102326.27
2018-09-26T06:38:51.025Z,102320.78
2018-09-26T06:41:19.328Z,102320.47
2018-09-26T06:43:47.959Z,102326.52
2018-09-26T06:46:16.131Z,102335.34
2018-09-26T06:48:44.387Z,102330.61
2018-09-26T06:51:12.610Z,102333.84
2018-09-26T06:53:40.895Z,102326.58
2018-09-26T06:56:09.903Z,102320.52
2018-09-26T06:58:38.227Z,102321.93
2018-09-26T07:01:06.574Z,102329.17
2018-09-26T07:03:34.867Z,102328.14
2018-09-26T07:06:03.014Z,102329.50
2018-09-26T07:08:31.233Z,102329.03
2018-09-26T07:10:59.356Z,102331.52
2018-09-26T07:13:27.520Z,102333.91
2018-09-26T07:15:55.958Z,102340.65
2018-09-26T07:18:24.168Z,102332.08
2018-09-26T07:20:52.312Z,102335.59
2018-09-26T07:23:20.706Z,102341.67
2018-09-26T07:25:49.294Z,102343.88
2018-09-26T07:28:17.455Z,102332.55
2018-09-26T07:30:46.592Z,102326.48
2018-09-26T07:33:14.704Z,102323.61
2018-09-26T07:35:44.362Z,102326.33
2018-09-26T07:38:12.616Z,102333.06
2018-09-26T07:40:41.083Z,102326.66
2018-09-26T07:43:09.325Z,102320.02
2018-09-26T07:45:38.113Z,102331.31
2018-09-26T07:48:06.711Z,102334.23
2018-09-26T07:50:34.899Z,102335.10
2018-09-26T07:53:03.105Z,102333.91
2018-09-26T07:55:31.997Z,102333.86
2018-09-26T07:58:00.145Z,102332.19
2018-09-26T08:00:28.466Z,102337.73
2018-09-26T08:02:56.739Z,102330.95
2018-09-26T08:05:25.517Z,102323.71
2018-09-26T08:07:53.825Z,102328.11
2018-09-26T08:10:23.054Z,102319.34
2018-09-26T08:12:52.185Z,102323.27
2018-09-26T08:15:20.411Z,102324.53
2018-09-26T08:17:48.730Z,102318.13
2018-09-26T08:20:22.661Z,102320.56
2018-09-26T08:22:51.067Z,102313.47
2018-09-26T08:25:19.317Z,102297.35
2018-09-26T08:27:47.465Z,102302.41
2018-09-26T08:30:15.615Z,102310.38
2018-09-26T08:32:44.154Z,102303.52
2018-09-26T08:35:12.676Z,102304.18
2018-09-26T08:37:41.570Z,102305.16
2018-09-26T08:40:13.720Z,102304.00
2018-09-26T08:45:19.423Z,102302.02
2018-09-26T08:47:48.089Z,102301.57
2018-09-26T08:50:16.793Z,102288.79
2018-09-26T08:52:45.133Z,102283.26
2018-09-26T08:55:13.373Z,102287.55
2018-09-26T08:57:41.599Z,102279.31
2018-09-26T09:00:09.843Z,102275.84
2018-09-26T09:02:38.050Z,102264.91
2018-09-26T09:05:06.278Z,102262.66
2018-09-26T09:07:34.670Z,102264.77
2018-09-26T09:10:03.304Z,102248.00
2018-09-26T09:12:31.600Z,102247.10
2018-09-26T09:15:00.000Z,102242.15
2018-09-26T09:17:28.307Z,102235.44
2018-09-26T09:19:56.478Z,102233.61
2018-09-26T09:22:25.888Z,102221.42
2018-09-26T09:24:54.724Z,102231.34
2018-09-26T09:27:22.973Z,102219.95
2018-09-26T09:29:52.272Z,102223.02
2018-09-26T09:32:21.603Z,102211.81
2018-09-26T09:34:49.869Z,102214.41
2018-09-26T09:37:18.999Z,102218.42
2018-09-26T09:39:47.836Z,102216.97
2018-09-26T09:42:16.060Z,102207.47
2018-09-26T09:44:44.404Z,102200.41
2018-09-26T09:47:12.699Z,102186.79
2018-09-26T09:49:40.988Z,102185.00
2018-09-26T09:52:09.430Z,102178.30
2018-09-26T09:54:37.948Z,102177.23
2018-09-26T09:57:07.059Z,102176.86
2018-09-26T09:59:35.199Z,102170.86
2018-09-26T10:02:04.028Z,102171.39
2018-09-26T10:04:32.833Z,102160.55
2018-09-26T10:07:01.175Z,102160.07
2018-09-26T10:09:30.022Z,102165.42
2018-09-26T10:11:58.993Z,102158.64
2018-09-26T10:14:27.310Z,102161.14
2018-09-26T10:16:55.643Z,102165.13
2018-09-26T10:19:24.065Z,102161.70
2018-09-26T10:21:52.261Z,102156.13
2018-09-26T10:24:20.459Z,102162.42
2018-09-26T10:26:48.708Z,102166.12
2018-09-26T10:29:16.902Z,102158.82
2018-09-26T10:31:45.801Z,102142.93
2018-09-26T10:34:13.969Z,102146.73
2018-09-26T10:36:45.228Z,102147.95
2018-09-26T10:39:14.439Z,102158.19
2018-09-26T10:41:42.627Z,102157.47
2018-09-26T10:44:10.881Z,102149.94
2018-09-26T10:46:39.859Z,102159.33
2018-09-26T10:49:08.252Z,102157.94
2018-09-26T10:51:36.992Z,102159.08
2018-09-26T10:54:05.138Z,102155.23
2018-09-26T10:56:34.286Z,102164.91
2018-09-26T10:59:02.420Z,102157.75
2018-09-26T11:01:30.811Z,102142.30
2018-09-26T11:03:59.076Z,102133.06
2018-09-26T11:06:27.284Z,102128.73
2018-09-26T11:08:56.534Z,102122.13
2018-09-26T11:11:24.757Z,102118.27
2018-09-26T11:13:54.264Z,102115.27
2018-09-26T11:16:22.450Z,102112.39
2018-09-26T11:18:52.144Z,102101.54
2018-09-26T11:21:21.076Z,102105.78
2018-09-26T11:23:49.974Z,102113.12
2018-09-26T11:26:18.208Z,102113.91
2018-09-26T11:28:46.297Z,102110.85
2018-09-26T11:31:15.218Z,102110.44
2018-09-26T11:33:43.500Z,102096.22
2018-09-26T11:36:11.577Z,102098.01
2018-09-26T11:38:40.939Z,102101.95
2018-09-26T11:41:09.215Z,102096.88
2018-09-26T11:43:38.204Z,102092.75
2018-09-26T11:46:06.484Z,102096.34
2018-09-26T11:48:35.843Z,102089.59
2018-09-26T11:51:04.129Z,102078.69
2018-09-26T11:53:33.284Z,102076.38
2018-09-26T11:56:01.584Z,102076.78
2018-09-26T11:58:29.696Z,102074.64
2018-09-26T12:00:57.895Z,102063.97
2018-09-26T12:03:26.052Z,102059.24
2018-09-26T12:05:54.233Z,102053.62
2018-09-26T12:08:22.603Z,102060.50
2018-09-26T12:10:51.978Z,102052.61
2018-09-26T12:13:20.327Z,102047.95
2018-09-26T12:15:49.067Z,102041.11
2018-09-26T12:18:17.425Z,102037.84
2018-09-26T12:20:45.759Z,102028.02
2018-09-26T12:23:14.683Z,102030.95
2018-09-26T12:25:43.259Z,102027.09
2018-09-26T12:28:11.428Z,102026.53
2018-09-26T12:30:39.584Z,102022.69
2018-09-26T12:33:07.824Z,102018.05
2018-09-26T12:35:36.017Z,102011.95
2018-09-26T12:38:04.400Z,102000.16
2018-09-26T12:40:32.591Z,102003.52
2018-09-26T12:43:00.747Z,101997.77
2018-09-26T12:45:29.376Z,101984.65
2018-09-26T12:47:57.567Z,101984.86
2018-09-26T12:50:25.743Z,101977.70
2018-09-26T12:52:53.939Z,101979.12
2018-09-26T12:55:22.079Z,101979.49
2018-09-26T12:57:50.348Z,101983.02
2018-09-26T13:00:18.614Z,101981.66
2018-09-26T13:02:46.872Z,101971.19
2018-09-26T13:05:15.938Z,101965.05
2018-09-26T13:07:44.145Z,101964.88
2018-09-26T13:10:12.487Z,101957.50
2018-09-26T13:12:40.676Z,101942.03
2018-09-26T13:15:08.962Z,101949.31
2018-09-26T13:17:37.284Z,101946.20
2018-09-26T13:20:06.339Z,101945.85
2018-09-26T13:22:35.072Z,101942.50
2018-09-26T13:25:03.300Z,101931.95
2018-09-26T13:27:31.534Z,101928.84
2018-09-26T13:30:00.248Z,101928.66
2018-09-26T13:32:28.548Z,101924.03
2018-09-26T13:34:56.833Z,101923.35
2018-09-26T13:37:25.105Z,101917.44
2018-09-26T13:39:53.345Z,101915.59
2018-09-26T13:42:21.660Z,101911.99
2018-09-26T13:44:49.860Z,101905.88
2018-09-26T13:47:18.132Z,101915.58
2018-09-26T13:49:46.494Z,101908.02
2018-09-26T13:52:14.786Z,101905.07
2018-09-26T13:54:42.942Z,101899.67
2018-09-26T13:57:11.411Z,101898.84
2018-09-26T13:59:39.833Z,101887.04
2018-09-26T14:02:08.068Z,101882.98
2018-09-26T14:04:36.297Z,101886.58
2018-09-26T14:07:04.635Z,101879.14
2018-09-26T14:09:32.812Z,101870.54
2018-09-26T14:12:01.129Z,101869.70
2018-09-26T14:14:29.608Z,101874.89
2018-09-26T14:16:58.093Z,101865.88
2018-09-26T14:19:26.336Z,101849.86
2018-09-26T14:21:54.525Z,101838.22
2018-09-26T14:24:22.921Z,101849.30
2018-09-26T14:26:51.103Z,101843.78
2018-09-26T14:29:19.333Z,101839.56
2018-09-26T14:31:47.535Z,101833.72
2018-09-26T14:34:15.739Z,101833.09
2018-09-26T14:36:44.093Z,101826.02
2018-09-26T14:39:12.362Z,101829.08
2018-09-26T14:41:40.486Z,101829.17
2018-09-26T14:44:08.656Z,101822.94
2018-09-26T14:46:36.751Z,101832.17
2018-09-26T14:49:05.018Z,101822.25
2018-09-26T14:51:33.139Z,101823.13
2018-09-26T14:54:01.341Z,101821.88
2018-09-26T14:56:29.550Z,101810.70
2018-09-26T14:58:58.181Z,101804.47
2018-09-26T15:01:26.319Z,101805.83
2018-09-26T15:03:54.476Z,101811.55
2018-09-26T15:06:22.858Z,101811.73
2018-09-26T15:08:51.125Z,101808.51
2018-09-26T15:11:19.893Z,101804.98
2018-09-26T15:13:48.094Z,101807.69
2018-09-26T15:16:16.415Z,101802.63
2018-09-26T15:18:44.597Z,101804.07
2018-09-26T15:21:13.595Z,101793.43
2018-09-26T15:23:41.743Z,101793.34
2018-09-26T15:26:09.957Z,101801.52
2018-09-26T15:28:39.281Z,101803.81
2018-09-26T15:31:08.033Z,101806.19
2018-09-26T15:33:36.189Z,101796.52
2018-09-26T15:36:04.528Z,101798.58
2018-09-26T15:38:32.676Z,101796.45
2018-09-26T15:41:00.971Z,101790.06
2018-09-26T15:43:29.221Z,101779.30
2018-09-26T15:45:57.407Z,101785.68
2018-09-26T15:48:25.563Z,101779.70
2018-09-26T15:50:53.705Z,101781.19
2018-09-26T15:53:21.875Z,101776.67
2018-09-26T15:55:51.163Z,101773.48
2018-09-26T15:58:20.148Z,101782.86
2018-09-26T16:00:49.182Z,101776.95
2018-09-26T16:03:17.339Z,101772.85
2018-09-26T16:05:46.280Z,101780.15
2018-09-26T16:08:14.444Z,101784.48
2018-09-26T16:10:42.661Z,101779.86
2018-09-26T16:13:10.821Z,101774.77
2018-09-26T16:15:39.091Z,101778.95
2018-09-26T16:18:07.297Z,101782.09
2018-09-26T16:20:35.781Z,101787.00
2018-09-26T16:23:04.609Z,101782.94
2018-09-26T16:25:33.135Z,101780.44
2018-09-26T16:28:02.089Z,101784.06
2018-09-26T16:30:30.259Z,101782.87
2018-09-26T16:32:58.461Z,101781.64
2018-09-26T16:35:26.707Z,101779.23
2018-09-26T16:37:54.885Z,101783.16
2018-09-26T16:40:23.097Z,101774.73
2018-09-26T16:42:51.401Z,101774.89
2018-09-26T16:45:19.693Z,101785.14
2018-09-26T16:47:47.931Z,101787.25
2018-09-26T16:50:16.098Z,101786.89
2018-09-26T16:52:44.331Z,101786.86
2018-09-26T16:55:12.604Z,101776.70
2018-09-26T16:57:40.874Z,101780.39
2018-09-26T17:00:09.062Z,101789.11
2018-09-26T17:02:37.241Z,101790.42
2018-09-26T17:05:06.435Z,101787.81
2018-09-26T17:07:34.716Z,101803.48
2018-09-26T17:10:02.925Z,101797.03
2018-09-26T17:12:31.072Z,101795.01
2018-09-26T17:14:59.268Z,101794.02
2018-09-26T17:17:27.610Z,101792.25
2018-09-26T17:19:55.951Z,101783.77
2018-09-26T17:22:24.342Z,101784.80
2018-09-26T17:24:52.542Z,101789.02
2018-09-26T17:27:20.802Z,101783.84
2018-09-26T17:29:49.099Z,101780.09
2018-09-26T17:32:17.332Z,101778.03
2018-09-26T17:34:45.807Z,101770.72
2018-09-26T17:37:13.938Z,101766.20
2018-09-26T17:39:42.056Z,101773.13
2018-09-26T17:42:10.448Z,101775.87
2018-09-26T17:44:38.570Z,101782.69
2018-09-26T17:47:07.082Z,101780.28
2018-09-26T17:49:35.312Z,101778.88
2018-09-26T17:52:03.632Z,101777.55
2018-09-26T17:54:31.823Z,101774.64
2018-09-26T17:57:00.065Z,101781.98
2018-09-26T17:59:28.259Z,101775.50
2018-09-26T18:01:56.620Z,101778.77
2018-09-26T18:04:24.960Z,101766.98
2018-09-26T18:06:53.174Z,101766.84
2018-09-26T18:09:22.124Z,101779.71
2018-09-26T18:11:50.867Z,101783.04
2018-09-26T18:14:19.026Z,101772.98
2018-09-26T18:16:47.159Z,101777.72
2018-09-26T18:19:15.363Z,101775.63
2018-09-26T18:21:43.769Z,101771.55
2018-09-26T18:24:12.119Z,101771.66
2018-09-26T18:26:40.348Z,101780.33
2018-09-26T18:29:08.645Z,101776.98
2018-09-26T18:31:37.087Z,101771.34
2018-09-26T18:34:05.401Z,101773.13
2018-09-26T18:36:33.548Z,101775.11
2018-09-26T18:39:01.852Z,101769.36
2018-09-26T18:41:30.068Z,101771.56
2018-09-26T18:43:58.231Z,101776.16
2018-09-26T18:46:26.687Z,101773.65
2018-09-26T18:48:54.865Z,101789.00
2018-09-26T18:51:23.086Z,101787.52
2018-09-26T18:53:51.311Z,101783.53
2018-09-26T18:56:19.602Z,101786.66
2018-09-26T18:58:47.887Z,101787.72
2018-09-26T19:01:16.189Z,101787.38
2018-09-26T19:03:44.366Z,101784.46
2018-09-26T19:06:12.569Z,101792.29
2018-09-26T19:08:40.857Z,101782.37
2018-09-26T19:11:09.113Z,101777.68
2018-09-26T19:13:37.532Z,101776.86
2018-09-26T19:16:06.253Z,101774.53
2018-09-26T19:18:34.664Z,101773.80
2018-09-26T19:21:02.870Z,101778.50
2018-09-26T19:23:31.091Z,101777.45
2018-09-26T19:25:59.404Z,101769.61
2018-09-26T19:28:27.694Z,101764.72
2018-09-26T19:30:56.045Z,101766.38
2018-09-26T19:33:24.477Z,101769.86
2018-09-26T19:35:53.268Z,101775.38
2018-09-26T19:38:21.639Z,101772.73
2018-09-26T19:40:49.840Z,101775.95
2018-09-26T19:43:18.176Z,101772.09
2018-09-26T19:45:47.019Z,101777.72
2018-09-26T19:48:15.436Z,101783.22
2018-09-26T19:50:43.964Z,101785.98
2018-09-26T19:53:12.246Z,101786.13
2018-09-26T19:55:40.568Z,101784.84
2018-09-26T19:58:08.852Z,101778.59
2018-09-26T20:00:37.065Z,101787.44
2018-09-26T20:03:05.383Z,101792.97
2018-09-26T20:05:33.598Z,101780.77
2018-09-26T20:08:01.849Z,101778.06
2018-09-26T20:10:30.121Z,101790.20
2018-09-26T20:12:58.453Z,101787.40
2018-09-26T20:15:26.989Z,101787.35
2018-09-26T20:17:55.264Z,101795.55
2018-09-26T20:20:23.561Z,101795.86
2018-09-26T20:22:51.830Z,101790.84
2018-09-26T20:25:20.575Z,101794.33
2018-09-26T20:27:48.717Z,101796.74
2018-09-26T20:30:17.481Z,101798.17
2018-09-26T20:32:45.755Z,101802.36
2018-09-26T20:35:13.975Z,101796.27
2018-09-26T20:37:43.058Z,101793.29
2018-09-26T20:40:11.211Z,101788.38
2018-09-26T20:42:39.437Z,101794.41
2018-09-26T20:45:07.736Z,101800.54
2018-09-26T20:47:35.940Z,101805.08
2018-09-26T20:50:04.869Z,101809.07
2018-09-26T20:52:33.065Z,101808.02
2018-09-26T20:55:01.931Z,101808.90
2018-09-26T20:57:30.160Z,101812.55
2018-09-26T20:59:58.345Z,101819.02
2018-09-26T21:02:26.778Z,101818.36
2018-09-26T21:04:55.229Z,101820.79
2018-09-26T21:07:23.512Z,101825.81
2018-09-26T21:09:51.845Z,101822.66
2018-09-26T21:12:20.014Z,101817.69
2018-09-26T21:14:48.282Z,101816.77
2018-09-26T21:17:17.300Z,101826.13
2018-09-26T21:19:45.624Z,101821.75
2018-09-26T21:22:13.914Z,101825.16
2018-09-26T21:24:43.238Z,101823.70
2018-09-26T21:27:11.451Z,101818.20
2018-09-26T21:29:39.759Z,101819.05
2018-09-26T21:32:07.957Z,101815.63
2018-09-26T21:34:36.226Z,101804.14
2018-09-26T21:37:04.525Z,101814.09
2018-09-26T21:39:32.809Z,101810.07
2018-09-26T21:42:01.145Z,101807.91
2018-09-26T21:44:29.292Z,101811.74
2018-09-26T21:46:57.567Z,101808.77
2018-09-26T21:49:26.473Z,101813.06
2018-09-26T21:51:55.100Z,101803.45
2018-09-26T21:54:24.085Z,101807.07
2018-09-26T21:56:52.310Z,101802.13
2018-09-26T21:59:20.404Z,101801.11
2018-09-26T22:01:48.662Z,101807.44
2018-09-26T22:04:17.103Z,101807.50
2018-09-26T22:06:45.353Z,101803.70
2018-09-26T22:09:13.701Z,101808.41
2018-09-26T22:11:42.232Z,101803.13
2018-09-26T22:14:10.616Z,101805.11
2018-09-26T22:16:38.796Z,101811.08
2018-09-26T22:19:06.965Z,101812.84
2018-09-26T22:21:35.242Z,101816.66
2018-09-26T22:24:04.300Z,101817.05
2018-09-26T22:26:33.097Z,101814.14
2018-09-26T22:29:02.366Z,101815.00
2018-09-26T22:31:34.175Z,101817.17
2018-09-26T22:34:02.614Z,101819.11
2018-09-26T22:36:30.783Z,101815.20
2018-09-26T22:38:59.118Z,101810.74
2018-09-26T22:41:28.053Z,101802.53
2018-09-26T22:43:56.305Z,101808.80
2018-09-26T22:46:24.528Z,101802.93
2018-09-26T22:48:52.848Z,101806.39
2018-09-26T22:51:21.072Z,101793.59
2018-09-26T22:53:49.445Z,101801.20
2018-09-26T22:56:17.549Z,101799.37
2018-09-26T22:58:45.830Z,101805.91
2018-09-26T23:01:14.025Z,101801.15
2018-09-26T23:03:42.368Z,101799.55
2018-09-26T23:06:11.436Z,101802.44
2018-09-26T23:08:39.613Z,101794.87
2018-09-26T23:11:07.929Z,101794.87
2018-09-26T23:13:36.393Z,101803.09
2018-09-26T23:16:04.747Z,101801.45
2018-09-26T23:18:32.921Z,101798.97
2018-09-26T23:21:01.208Z,101804.28
2018-09-26T23:23:30.443Z,101799.72
2018-09-26T23:25:58.762Z,101796.02
2018-09-26T23:28:27.721Z,101799.66
2018-09-26T23:30:56.407Z,101797.95
2018-09-26T23:33:25.158Z,101801.96
2018-09-26T23:35:53.571Z,101804.53
2018-09-26T23:38:22.573Z,101793.70
2018-09-26T23:40:51.975Z,101803.37
2018-09-26T23:43:20.205Z,101807.48
2018-09-26T23:45:49.939Z,101809.59
2018-09-26T23:48:18.163Z,101808.03
2018-09-26T23:50:47.639Z,101816.20
2018-09-26T23:53:15.911Z,101807.84
2018-09-26T23:55:44.321Z,101813.35
2018-09-26T23:58:12.488Z,101813.27
